PWSweather.com
Personal Weather Stations
Station Observations
01979
Ravne Pri CerknemSI 5282

Ravne Pri CerknemSI 5282

Lat: 46.1213916, Lon: 13.952774299999987

Elevation: 2244.094488

Station Type: Techo Line WS2307

www.vremenska.postaja.andre.si/

High Low Average
Temperature 45.9°F7.7°C 36.1°F2.3°C 39.7°F4.3°C
Dew Point 41.1°F5.1°C 32.8°F0.4°C 37.5°F3.1°C
Winds 7.7 mph 12.4 kmh Calm Calm 1.0 mph ESE1.6 kmh ESE
Wind Gusts 13.0 mph20.9 kmh -- 2.0 mph3.2 kmh
Humidity 97% 78% 92%
Pressure 30.04 in1017.3 mb 29.50 in999.0 mb -
Precipitation 0.55 in14.0 mm - -
Hour Temp Dew Point Humidity Winds Wind Gusts Pressure Precip Precip Rate Daily Precip Total
12:00 AM 38.1°F3.4°C 37.1°F2.8°C 96% Calm Calm -- 29.54 in1000.3 mb 0.16 in4.1 mm 0.00 in0.0 mm 0.16 in4.1 mm
12:10 AM 38.1°F3.4°C 37.1°F2.8°C 96% Calm Calm -- 29.52 in999.7 mb 0.14 in3.6 mm 0.00 in0.0 mm 0.02 in0.5 mm
12:20 AM 38.1°F3.4°C 37.1°F2.8°C 96% Calm Calm -- 29.53 in1000.0 mb 0.14 in3.6 mm 0.00 in0.0 mm 0.04 in1.0 mm
12:30 AM 38.1°F3.4°C 37.1°F2.8°C 96% 0.5 mph NW0.8 kmh NW 2.7 mph4.3 kmh 29.52 in999.7 mb 0.14 in3.6 mm 0.00 in0.0 mm 0.06 in1.5 mm
12:40 AM 37.9°F3.3°C 36.9°F2.7°C 96% Calm Calm -- 29.53 in1000.0 mb 0.14 in3.6 mm 0.00 in0.0 mm 0.08 in2.0 mm
12:50 AM 37.4°F3.0°C 36.4°F2.4°C 96% Calm Calm -- 29.52 in999.7 mb 0.14 in3.6 mm 0.00 in0.0 mm 0.14 in3.6 mm
01:00 AM 37.8°F3.2°C 36.7°F2.6°C 96% Calm Calm -- 29.52 in999.7 mb 0.16 in4.1 mm 0.02 in0.5 mm 0.16 in4.1 mm
01:10 AM 37.8°F3.2°C 36.7°F2.6°C 96% Calm Calm -- 29.52 in999.7 mb 0.19 in4.8 mm 0.18 in4.6 mm 0.20 in5.1 mm
01:20 AM 37.9°F3.3°C 36.9°F2.7°C 96% 0.4 mph N0.6 kmh N 3.8 mph6.1 kmh 29.52 in999.7 mb 0.16 in4.1 mm 0.00 in0.0 mm 0.20 in5.1 mm
01:30 AM 37.8°F3.2°C 36.7°F2.6°C 96% 1.5 mph N2.4 kmh N 5.4 mph8.7 kmh 29.52 in999.7 mb 0.19 in4.8 mm 0.18 in4.6 mm 0.24 in6.1 mm
01:40 AM 37.9°F3.3°C 36.9°F2.7°C 96% Calm Calm -- 29.52 in999.7 mb 0.19 in4.8 mm 0.00 in0.0 mm 0.26 in6.6 mm
01:50 AM 37.8°F3.2°C 37.0°F2.8°C 97% Calm Calm -- 29.54 in1000.3 mb 0.19 in4.8 mm 0.00 in0.0 mm 0.33 in8.4 mm
02:00 AM 37.8°F3.2°C 37.0°F2.8°C 97% Calm Calm -- 29.53 in1000.0 mb 0.22 in5.6 mm 0.04 in1.0 mm 0.39 in9.9 mm
02:02 AM 37.9°F3.3°C 36.9°F2.7°C 96% Calm Calm -- 29.52 in999.7 mb 0.08 in2.0 mm 0.00 in0.0 mm 0.27 in6.9 mm
02:10 AM 37.9°F3.3°C 37.2°F2.9°C 97% 1.9 mph NE3.1 kmh NE 5.1 mph8.2 kmh 29.52 in999.7 mb 0.22 in5.6 mm 1.05 in26.7 mm 0.43 in10.9 mm
02:20 AM 37.8°F3.2°C 37.0°F2.8°C 97% 1.6 mph NE2.6 kmh NE 4.9 mph7.9 kmh 29.52 in999.7 mb 0.22 in5.6 mm 0.00 in0.0 mm 0.45 in11.4 mm
02:30 AM 37.6°F3.1°C 36.8°F2.7°C 97% 0.1 mph NNE0.2 kmh NNE 1.3 mph2.1 kmh 29.50 in999.0 mb 0.18 in4.6 mm 0.00 in0.0 mm 0.45 in11.4 mm
02:40 AM 37.6°F3.1°C 36.8°F2.7°C 97% 0.5 mph NE0.8 kmh NE 1.6 mph2.6 kmh 29.50 in999.0 mb 0.14 in3.6 mm 0.00 in0.0 mm 0.45 in11.4 mm
02:50 AM 37.4°F3.0°C 36.6°F2.6°C 97% Calm Calm -- 29.52 in999.7 mb 0.10 in2.5 mm 0.00 in0.0 mm 0.45 in11.4 mm
03:00 AM 37.6°F3.1°C 36.8°F2.7°C 97% Calm Calm -- 29.52 in999.7 mb 0.19 in4.8 mm 0.11 in2.8 mm 0.45 in11.4 mm
03:10 AM 37.6°F3.1°C 36.8°F2.7°C 97% Calm Calm -- 29.52 in999.7 mb 0.02 in0.5 mm 0.00 in0.0 mm 0.45 in11.4 mm
03:20 AM 37.4°F3.0°C 36.6°F2.6°C 97% Calm Calm -- 29.51 in999.3 mb 0.00 in0.0 mm 0.00 in0.0 mm 0.45 in11.4 mm
03:30 AM 37.9°F3.3°C 37.2°F2.9°C 97% 4.4 mph ESE7.1 kmh ESE 7.4 mph11.9 kmh 29.52 in999.7 mb 0.00 in0.0 mm 0.00 in0.0 mm 0.45 in11.4 mm
03:40 AM 37.9°F3.3°C 37.2°F2.9°C 97% 7.7 mph E12.4 kmh E 13.0 mph20.9 kmh 29.52 in999.7 mb 0.02 in0.5 mm 0.12 in3.0 mm 0.47 in11.9 mm
03:50 AM 38.5°F3.6°C 37.7°F3.2°C 97% 6.5 mph SE10.5 kmh SE 9.6 mph15.4 kmh 29.52 in999.7 mb 0.02 in0.5 mm 0.00 in0.0 mm 0.47 in11.9 mm
04:00 AM 38.5°F3.6°C 37.7°F3.2°C 97% 5.6 mph SE9.0 kmh SE 9.2 mph14.8 kmh 29.52 in999.7 mb 0.02 in0.5 mm 0.00 in0.0 mm 0.47 in11.9 mm
04:10 AM 38.1°F3.4°C 37.3°F2.9°C 97% 3.1 mph E5.0 kmh E 8.7 mph14.0 kmh 29.53 in1000.0 mb 0.02 in0.5 mm 0.00 in0.0 mm 0.47 in11.9 mm
04:20 AM 38.5°F3.6°C 37.7°F3.2°C 97% 4.5 mph ESE7.2 kmh ESE 7.6 mph12.2 kmh 29.54 in1000.3 mb 0.02 in0.5 mm 0.00 in0.0 mm 0.47 in11.9 mm
04:30 AM 37.9°F3.3°C 37.2°F2.9°C 97% Calm Calm -- 29.54 in1000.3 mb 0.02 in0.5 mm 0.00 in0.0 mm 0.47 in11.9 mm
04:40 AM 37.8°F3.2°C 37.0°F2.8°C 97% 1.0 mph SW1.6 kmh SW 3.1 mph5.0 kmh 29.54 in1000.3 mb 0.00 in0.0 mm 0.00 in0.0 mm 0.47 in11.9 mm
04:50 AM 38.1°F3.4°C 37.3°F2.9°C 97% 0.6 mph ENE1.0 kmh ENE 2.9 mph4.7 kmh 29.55 in1000.7 mb 0.00 in0.0 mm 0.00 in0.0 mm 0.47 in11.9 mm
05:00 AM 38.5°F3.6°C 37.7°F3.2°C 97% Calm Calm -- 29.55 in1000.7 mb 0.00 in0.0 mm 0.00 in0.0 mm 0.47 in11.9 mm
05:10 AM 38.7°F3.7°C 37.9°F3.3°C 97% 2.2 mph E3.5 kmh E 5.8 mph9.3 kmh 29.56 in1001.0 mb 0.00 in0.0 mm 0.00 in0.0 mm 0.47 in11.9 mm
05:20 AM 38.5°F3.6°C 37.7°F3.2°C 97% 0.1 mph E0.2 kmh E 5.8 mph9.3 kmh 29.56 in1001.0 mb 0.00 in0.0 mm 0.00 in0.0 mm 0.47 in11.9 mm
05:30 AM 38.8°F3.8°C 38.1°F3.4°C 97% 1.2 mph E1.9 kmh E 4.7 mph7.6 kmh 29.57 in1001.4 mb 0.00 in0.0 mm 0.00 in0.0 mm 0.47 in11.9 mm
05:40 AM 38.8°F3.8°C 38.1°F3.4°C 97% 3.1 mph ESE5.0 kmh ESE 4.7 mph7.6 kmh 29.57 in1001.4 mb 0.00 in0.0 mm 0.00 in0.0 mm 0.47 in11.9 mm
05:50 AM 38.8°F3.8°C 38.1°F3.4°C 97% 0.9 mph E1.4 kmh E 3.6 mph5.8 kmh 29.57 in1001.4 mb 0.00 in0.0 mm 0.00 in0.0 mm 0.47 in11.9 mm
06:00 AM 38.8°F3.8°C 38.1°F3.4°C 97% 2.2 mph E3.5 kmh E 5.6 mph9.0 kmh 29.57 in1001.4 mb 0.00 in0.0 mm 0.00 in0.0 mm 0.47 in11.9 mm
06:10 AM 38.8°F3.8°C 38.1°F3.4°C 97% 4.6 mph ESE7.4 kmh ESE 7.6 mph12.2 kmh 29.57 in1001.4 mb 0.00 in0.0 mm 0.00 in0.0 mm 0.47 in11.9 mm
06:20 AM 38.8°F3.8°C 38.1°F3.4°C 97% 1.0 mph E1.6 kmh E 4.5 mph7.2 kmh 29.57 in1001.4 mb 0.00 in0.0 mm 0.00 in0.0 mm 0.47 in11.9 mm
06:30 AM 38.8°F3.8°C 38.1°F3.4°C 97% 0.4 mph ESE0.6 kmh ESE 1.8 mph2.9 kmh 29.58 in1001.7 mb 0.00 in0.0 mm 0.00 in0.0 mm 0.47 in11.9 mm
06:40 AM 38.8°F3.8°C 38.1°F3.4°C 97% Calm Calm -- 29.58 in1001.7 mb 0.00 in0.0 mm 0.00 in0.0 mm 0.47 in11.9 mm
06:50 AM 38.5°F3.6°C 37.7°F3.2°C 97% 1.0 mph ESE1.6 kmh ESE 5.1 mph8.2 kmh 29.59 in1002.0 mb 0.02 in0.5 mm 0.12 in3.0 mm 0.49 in12.4 mm
07:00 AM 38.8°F3.8°C 38.1°F3.4°C 97% 0.6 mph ESE1.0 kmh ESE 2.7 mph4.3 kmh 29.59 in1002.0 mb 0.02 in0.5 mm 0.00 in0.0 mm 0.49 in12.4 mm
07:10 AM 38.8°F3.8°C 38.1°F3.4°C 97% Calm Calm -- 29.59 in1002.0 mb 0.02 in0.5 mm 0.00 in0.0 mm 0.49 in12.4 mm
07:20 AM 38.5°F3.6°C 37.7°F3.2°C 97% Calm Calm -- 29.60 in1002.4 mb 0.02 in0.5 mm 0.00 in0.0 mm 0.49 in12.4 mm
07:30 AM 38.3°F3.5°C 37.5°F3.1°C 97% Calm Calm -- 29.60 in1002.4 mb 0.02 in0.5 mm 0.00 in0.0 mm 0.49 in12.4 mm
07:40 AM 38.3°F3.5°C 37.5°F3.1°C 97% Calm Calm -- 29.61 in1002.7 mb 0.04 in1.0 mm 0.12 in3.0 mm 0.51 in13.0 mm
07:50 AM 38.1°F3.4°C 37.3°F2.9°C 97% Calm Calm -- 29.62 in1003.0 mb 0.02 in0.5 mm 0.00 in0.0 mm 0.51 in13.0 mm
08:00 AM 38.3°F3.5°C 37.5°F3.1°C 97% Calm Calm -- 29.62 in1003.0 mb 0.04 in1.0 mm 0.02 in0.5 mm 0.53 in13.5 mm
08:10 AM 38.5°F3.6°C 37.7°F3.2°C 97% Calm Calm -- 29.62 in1003.0 mb 0.04 in1.0 mm 0.00 in0.0 mm 0.53 in13.5 mm
08:20 AM 38.7°F3.7°C 37.9°F3.3°C 97% Calm Calm -- 29.63 in1003.4 mb 0.04 in1.0 mm 0.00 in0.0 mm 0.53 in13.5 mm
08:30 AM 38.5°F3.6°C 37.7°F3.2°C 97% 0.7 mph NNW1.1 kmh NNW 3.1 mph5.0 kmh 29.64 in1003.7 mb 0.06 in1.5 mm 0.12 in3.0 mm 0.55 in14.0 mm
08:40 AM 38.7°F3.7°C 37.9°F3.3°C 97% Calm Calm -- 29.65 in1004.1 mb 0.04 in1.0 mm 0.00 in0.0 mm 0.55 in14.0 mm
08:50 AM 38.8°F3.8°C 38.1°F3.4°C 97% Calm Calm -- 29.65 in1004.1 mb 0.04 in1.0 mm 0.00 in0.0 mm 0.55 in14.0 mm
09:00 AM 38.8°F3.8°C 38.1°F3.4°C 97% Calm Calm -- 29.66 in1004.4 mb 0.02 in0.5 mm 0.00 in0.0 mm 0.55 in14.0 mm
09:10 AM 38.8°F3.8°C 38.1°F3.4°C 97% Calm Calm -- 29.66 in1004.4 mb 0.02 in0.5 mm 0.00 in0.0 mm 0.55 in14.0 mm
09:20 AM 38.8°F3.8°C 38.1°F3.4°C 97% 0.6 mph NNW1.0 kmh NNW 3.1 mph5.0 kmh 29.66 in1004.4 mb 0.02 in0.5 mm 0.00 in0.0 mm 0.55 in14.0 mm
09:30 AM 39.0°F3.9°C 38.2°F3.4°C 97% 1.0 mph N1.6 kmh N 5.1 mph8.2 kmh 29.67 in1004.7 mb 0.00 in0.0 mm 0.00 in0.0 mm 0.55 in14.0 mm
09:40 AM 39.4°F4.1°C 38.6°F3.7°C 97% Calm Calm -- 29.68 in1005.1 mb 0.00 in0.0 mm 0.00 in0.0 mm 0.55 in14.0 mm
09:50 AM 39.4°F4.1°C 38.6°F3.7°C 97% Calm Calm -- 29.68 in1005.1 mb 0.00 in0.0 mm 0.00 in0.0 mm 0.55 in14.0 mm
10:00 AM 39.4°F4.1°C 38.6°F3.7°C 97% Calm Calm -- 29.68 in1005.1 mb 0.00 in0.0 mm 0.00 in0.0 mm 0.55 in14.0 mm
10:10 AM 39.4°F4.1°C 38.6°F3.7°C 97% Calm Calm -- 29.69 in1005.4 mb 0.00 in0.0 mm 0.00 in0.0 mm 0.55 in14.0 mm
10:20 AM 39.7°F4.3°C 39.0°F3.9°C 97% Calm Calm -- 29.69 in1005.4 mb 0.00 in0.0 mm 0.00 in0.0 mm 0.55 in14.0 mm
10:30 AM 39.9°F4.4°C 38.9°F3.8°C 96% Calm Calm -- 29.70 in1005.8 mb 0.00 in0.0 mm 0.00 in0.0 mm 0.55 in14.0 mm
10:40 AM 40.6°F4.8°C 39.6°F4.2°C 96% Calm Calm -- 29.69 in1005.4 mb 0.00 in0.0 mm 0.00 in0.0 mm 0.55 in14.0 mm
10:50 AM 41.4°F5.2°C 40.0°F4.4°C 95% 0.3 mph N0.5 kmh N 2.0 mph3.2 kmh 29.69 in1005.4 mb 0.00 in0.0 mm 0.00 in0.0 mm 0.55 in14.0 mm
11:00 AM 41.0°F5.0°C 39.4°F4.1°C 94% 1.0 mph N1.6 kmh N 2.5 mph4.0 kmh 29.68 in1005.1 mb 0.00 in0.0 mm 0.00 in0.0 mm 0.55 in14.0 mm
11:10 AM 41.7°F5.4°C 39.8°F4.3°C 93% 0.7 mph WNW1.1 kmh WNW 3.1 mph5.0 kmh 29.68 in1005.1 mb 0.00 in0.0 mm 0.00 in0.0 mm 0.55 in14.0 mm
11:20 AM 43.0°F6.1°C 40.8°F4.9°C 92% Calm Calm -- 29.69 in1005.4 mb 0.00 in0.0 mm 0.00 in0.0 mm 0.55 in14.0 mm
11:30 AM 43.5°F6.4°C 41.1°F5.1°C 91% 0.5 mph W0.8 kmh W 1.8 mph2.9 kmh 29.69 in1005.4 mb 0.00 in0.0 mm 0.00 in0.0 mm 0.55 in14.0 mm
11:40 AM 41.9°F5.5°C 39.7°F4.3°C 92% 0.9 mph S1.4 kmh S 3.1 mph5.0 kmh 29.69 in1005.4 mb 0.00 in0.0 mm 0.00 in0.0 mm 0.55 in14.0 mm
11:50 AM 41.2°F5.1°C 39.3°F4.1°C 93% 1.0 mph SSE1.6 kmh SSE 2.2 mph3.5 kmh 29.70 in1005.8 mb 0.00 in0.0 mm 0.00 in0.0 mm 0.55 in14.0 mm
12:00 PM 41.2°F5.1°C 39.3°F4.1°C 93% 0.7 mph S1.1 kmh S 2.5 mph4.0 kmh 29.70 in1005.8 mb 0.00 in0.0 mm 0.00 in0.0 mm 0.55 in14.0 mm
12:10 PM 41.2°F5.1°C 39.3°F4.1°C 93% Calm Calm -- 29.70 in1005.8 mb 0.00 in0.0 mm 0.00 in0.0 mm 0.55 in14.0 mm
12:20 PM 41.7°F5.4°C 39.6°F4.2°C 92% Calm Calm -- 29.71 in1006.1 mb 0.00 in0.0 mm 0.00 in0.0 mm 0.55 in14.0 mm
12:30 PM 41.7°F5.4°C 39.6°F4.2°C 92% Calm Calm -- 29.71 in1006.1 mb 0.00 in0.0 mm 0.00 in0.0 mm 0.55 in14.0 mm
12:40 PM 41.9°F5.5°C 39.7°F4.3°C 92% Calm Calm -- 29.71 in1006.1 mb 0.00 in0.0 mm 0.00 in0.0 mm 0.55 in14.0 mm
12:50 PM 42.1°F5.6°C 39.9°F4.4°C 92% Calm Calm -- 29.71 in1006.1 mb 0.00 in0.0 mm 0.00 in0.0 mm 0.55 in14.0 mm
01:00 PM 42.1°F5.6°C 39.9°F4.4°C 92% Calm Calm -- 29.72 in1006.4 mb 0.00 in0.0 mm 0.00 in0.0 mm 0.55 in14.0 mm
01:10 PM 42.4°F5.8°C 40.3°F4.6°C 92% Calm Calm -- 29.71 in1006.1 mb 0.00 in0.0 mm 0.00 in0.0 mm 0.55 in14.0 mm
01:20 PM 42.1°F5.6°C 39.6°F4.2°C 91% Calm Calm -- 29.71 in1006.1 mb 0.00 in0.0 mm 0.00 in0.0 mm 0.55 in14.0 mm
01:30 PM 42.4°F5.8°C 39.7°F4.3°C 90% Calm Calm -- 29.71 in1006.1 mb 0.00 in0.0 mm 0.00 in0.0 mm 0.55 in14.0 mm
01:40 PM 42.6°F5.9°C 39.3°F4.1°C 88% Calm Calm -- 29.71 in1006.1 mb 0.00 in0.0 mm 0.00 in0.0 mm 0.55 in14.0 mm
01:50 PM 45.5°F7.5°C 40.6°F4.8°C 83% Calm Calm -- 29.71 in1006.1 mb 0.00 in0.0 mm 0.00 in0.0 mm 0.55 in14.0 mm
02:00 PM 45.9°F7.7°C 39.7°F4.3°C 79% 0.9 mph NW1.4 kmh NW 3.6 mph5.8 kmh 29.71 in1006.1 mb 0.00 in0.0 mm 0.00 in0.0 mm 0.55 in14.0 mm
02:10 PM 45.7°F7.6°C 39.2°F4.0°C 78% 0.3 mph SW0.5 kmh SW 2.2 mph3.5 kmh 29.72 in1006.4 mb 0.00 in0.0 mm 0.00 in0.0 mm 0.55 in14.0 mm
02:20 PM 44.4°F6.9°C 39.0°F3.9°C 81% Calm Calm -- 29.72 in1006.4 mb 0.00 in0.0 mm 0.00 in0.0 mm 0.55 in14.0 mm
02:30 PM 43.0°F6.1°C 38.2°F3.4°C 83% Calm Calm -- 29.73 in1006.8 mb 0.00 in0.0 mm 0.00 in0.0 mm 0.55 in14.0 mm
02:40 PM 42.6°F5.9°C 37.8°F3.2°C 83% Calm Calm -- 29.72 in1006.4 mb 0.00 in0.0 mm 0.00 in0.0 mm 0.55 in14.0 mm
02:50 PM 42.6°F5.9°C 37.8°F3.2°C 83% Calm Calm -- 29.73 in1006.8 mb 0.00 in0.0 mm 0.00 in0.0 mm 0.55 in14.0 mm
03:00 PM 42.6°F5.9°C 38.1°F3.4°C 84% Calm Calm -- 29.74 in1007.1 mb 0.00 in0.0 mm 0.00 in0.0 mm 0.55 in14.0 mm
03:10 PM 42.6°F5.9°C 38.1°F3.4°C 84% Calm Calm -- 29.74 in1007.1 mb 0.00 in0.0 mm 0.00 in0.0 mm 0.55 in14.0 mm
03:20 PM 43.0°F6.1°C 38.8°F3.8°C 85% Calm Calm -- 29.74 in1007.1 mb 0.00 in0.0 mm 0.00 in0.0 mm 0.55 in14.0 mm
03:30 PM 43.3°F6.3°C 39.1°F3.9°C 85% Calm Calm -- 29.75 in1007.5 mb 0.00 in0.0 mm 0.00 in0.0 mm 0.55 in14.0 mm
03:40 PM 44.2°F6.8°C 39.4°F4.1°C 83% 2.2 mph NW3.5 kmh NW 5.6 mph9.0 kmh 29.75 in1007.5 mb 0.00 in0.0 mm 0.00 in0.0 mm 0.55 in14.0 mm
03:50 PM 43.3°F6.3°C 38.5°F3.6°C 83% 3.4 mph NNW5.5 kmh NNW 4.3 mph6.9 kmh 29.75 in1007.5 mb 0.00 in0.0 mm 0.00 in0.0 mm 0.55 in14.0 mm
04:00 PM 44.1°F6.7°C 39.8°F4.3°C 85% 3.2 mph NW5.1 kmh NW 4.3 mph6.9 kmh 29.76 in1007.8 mb 0.00 in0.0 mm 0.00 in0.0 mm 0.55 in14.0 mm
04:10 PM 45.1°F7.3°C 40.3°F4.6°C 83% 1.9 mph NW3.1 kmh NW 3.1 mph5.0 kmh 29.77 in1008.1 mb 0.00 in0.0 mm 0.00 in0.0 mm 0.55 in14.0 mm
04:20 PM 44.6°F7.0°C 39.4°F4.1°C 82% 3.1 mph NW5.0 kmh NW 5.8 mph9.3 kmh 29.77 in1008.1 mb 0.00 in0.0 mm 0.00 in0.0 mm 0.55 in14.0 mm
04:30 PM 43.5°F6.4°C 39.0°F3.9°C 84% 3.0 mph NNW4.8 kmh NNW 4.0 mph6.4 kmh 29.77 in1008.1 mb 0.00 in0.0 mm 0.00 in0.0 mm 0.55 in14.0 mm
04:40 PM 42.6°F5.9°C 38.4°F3.6°C 85% 1.5 mph NW2.4 kmh NW 2.7 mph4.3 kmh 29.78 in1008.5 mb 0.00 in0.0 mm 0.00 in0.0 mm 0.55 in14.0 mm
04:50 PM 42.1°F5.6°C 38.5°F3.6°C 87% 1.3 mph NW2.1 kmh NW 2.7 mph4.3 kmh 29.78 in1008.5 mb 0.00 in0.0 mm 0.00 in0.0 mm 0.55 in14.0 mm
05:00 PM 41.7°F5.4°C 38.4°F3.6°C 88% 1.5 mph NW2.4 kmh NW 3.6 mph5.8 kmh 29.79 in1008.8 mb 0.00 in0.0 mm 0.00 in0.0 mm 0.55 in14.0 mm
05:10 PM 41.5°F5.3°C 38.3°F3.5°C 88% 1.8 mph NNW2.9 kmh NNW 3.1 mph5.0 kmh 29.79 in1008.8 mb 0.00 in0.0 mm 0.00 in0.0 mm 0.55 in14.0 mm
05:20 PM 41.5°F5.3°C 38.5°F3.6°C 89% 0.8 mph NNW1.3 kmh NNW 2.2 mph3.5 kmh 29.80 in1009.1 mb 0.00 in0.0 mm 0.00 in0.0 mm 0.55 in14.0 mm
05:30 PM 41.2°F5.1°C 38.2°F3.4°C 89% 0.7 mph NW1.1 kmh NW 1.8 mph2.9 kmh 29.80 in1009.1 mb 0.00 in0.0 mm 0.00 in0.0 mm 0.55 in14.0 mm
05:40 PM 41.0°F5.0°C 38.0°F3.3°C 89% 1.1 mph NW1.8 kmh NW 2.9 mph4.7 kmh 29.80 in1009.1 mb 0.00 in0.0 mm 0.00 in0.0 mm 0.55 in14.0 mm
05:50 PM 40.8°F4.9°C 37.8°F3.2°C 89% 0.6 mph ESE1.0 kmh ESE 1.3 mph2.1 kmh 29.81 in1009.5 mb 0.00 in0.0 mm 0.00 in0.0 mm 0.55 in14.0 mm
06:00 PM 40.6°F4.8°C 37.7°F3.2°C 89% 2.1 mph SE3.4 kmh SE 4.9 mph7.9 kmh 29.82 in1009.8 mb 0.00 in0.0 mm 0.00 in0.0 mm 0.55 in14.0 mm
06:10 PM 40.8°F4.9°C 37.8°F3.2°C 89% 2.4 mph S3.9 kmh S 3.6 mph5.8 kmh 29.83 in1010.2 mb 0.00 in0.0 mm 0.00 in0.0 mm 0.55 in14.0 mm
06:20 PM 40.1°F4.5°C 37.1°F2.8°C 89% 3.0 mph SSE4.8 kmh SSE 3.6 mph5.8 kmh 29.83 in1010.2 mb 0.00 in0.0 mm 0.00 in0.0 mm 0.55 in14.0 mm
06:30 PM 39.9°F4.4°C 36.9°F2.7°C 89% 1.7 mph SE2.7 kmh SE 2.7 mph4.3 kmh 29.84 in1010.5 mb 0.00 in0.0 mm 0.00 in0.0 mm 0.55 in14.0 mm
06:40 PM 39.7°F4.3°C 36.8°F2.7°C 89% Calm Calm -- 29.84 in1010.5 mb 0.00 in0.0 mm 0.00 in0.0 mm 0.55 in14.0 mm
06:50 PM 39.7°F4.3°C 36.8°F2.7°C 89% Calm Calm -- 29.85 in1010.8 mb 0.00 in0.0 mm 0.00 in0.0 mm 0.55 in14.0 mm
07:00 PM 39.9°F4.4°C 36.7°F2.6°C 88% 0.5 mph E0.8 kmh E 2.0 mph3.2 kmh 29.86 in1011.2 mb 0.00 in0.0 mm 0.00 in0.0 mm 0.55 in14.0 mm
07:10 PM 39.9°F4.4°C 36.7°F2.6°C 88% 1.3 mph N2.1 kmh N 2.7 mph4.3 kmh 29.86 in1011.2 mb 0.00 in0.0 mm 0.00 in0.0 mm 0.55 in14.0 mm
07:20 PM 39.7°F4.3°C 36.2°F2.3°C 87% 1.0 mph W1.6 kmh W 2.5 mph4.0 kmh 29.86 in1011.2 mb 0.00 in0.0 mm 0.00 in0.0 mm 0.55 in14.0 mm
07:30 PM 39.7°F4.3°C 36.2°F2.3°C 87% 2.1 mph NW3.4 kmh NW 3.6 mph5.8 kmh 29.88 in1011.9 mb 0.00 in0.0 mm 0.00 in0.0 mm 0.55 in14.0 mm
07:40 PM 39.6°F4.2°C 36.3°F2.4°C 88% 2.4 mph N3.9 kmh N 6.7 mph10.8 kmh 29.88 in1011.9 mb 0.00 in0.0 mm 0.00 in0.0 mm 0.55 in14.0 mm
07:50 PM 39.4°F4.1°C 36.4°F2.4°C 89% 1.3 mph NNW2.1 kmh NNW 2.0 mph3.2 kmh 29.89 in1012.2 mb 0.00 in0.0 mm 0.00 in0.0 mm 0.55 in14.0 mm
08:00 PM 39.4°F4.1°C 36.7°F2.6°C 90% 1.4 mph NNW2.3 kmh NNW 3.4 mph5.5 kmh 29.89 in1012.2 mb 0.00 in0.0 mm 0.00 in0.0 mm 0.55 in14.0 mm
08:10 PM 39.0°F3.9°C 36.6°F2.6°C 91% Calm Calm -- 29.90 in1012.5 mb 0.00 in0.0 mm 0.00 in0.0 mm 0.55 in14.0 mm
08:20 PM 39.0°F3.9°C 36.6°F2.6°C 91% 0.5 mph NNW0.8 kmh NNW 2.7 mph4.3 kmh 29.90 in1012.5 mb 0.00 in0.0 mm 0.00 in0.0 mm 0.55 in14.0 mm
08:30 PM 38.8°F3.8°C 36.4°F2.4°C 91% 2.4 mph NNW3.9 kmh NNW 3.1 mph5.0 kmh 29.91 in1012.9 mb 0.00 in0.0 mm 0.00 in0.0 mm 0.55 in14.0 mm
08:40 PM 38.5°F3.6°C 35.5°F1.9°C 89% 1.2 mph WNW1.9 kmh WNW 2.5 mph4.0 kmh 29.92 in1013.2 mb 0.00 in0.0 mm 0.00 in0.0 mm 0.55 in14.0 mm
08:50 PM 37.9°F3.3°C 35.0°F1.7°C 89% 0.4 mph WNW0.6 kmh WNW 2.0 mph3.2 kmh 29.92 in1013.2 mb 0.00 in0.0 mm 0.00 in0.0 mm 0.55 in14.0 mm
09:00 PM 38.1°F3.4°C 34.9°F1.6°C 88% 2.0 mph NW3.2 kmh NW 2.7 mph4.3 kmh 29.93 in1013.5 mb 0.00 in0.0 mm 0.00 in0.0 mm 0.55 in14.0 mm
09:10 PM 37.9°F3.3°C 34.7°F1.5°C 88% 0.5 mph WSW0.8 kmh WSW 2.7 mph4.3 kmh 29.94 in1013.9 mb 0.00 in0.0 mm 0.00 in0.0 mm 0.55 in14.0 mm
09:20 PM 37.8°F3.2°C 34.5°F1.4°C 88% 3.1 mph S5.0 kmh S 5.6 mph9.0 kmh 29.94 in1013.9 mb 0.00 in0.0 mm 0.00 in0.0 mm 0.55 in14.0 mm
09:30 PM 37.9°F3.3°C 34.7°F1.5°C 88% 2.6 mph SE4.2 kmh SE 5.6 mph9.0 kmh 29.95 in1014.2 mb 0.00 in0.0 mm 0.00 in0.0 mm 0.55 in14.0 mm
09:40 PM 37.8°F3.2°C 34.5°F1.4°C 88% 1.8 mph SE2.9 kmh SE 2.9 mph4.7 kmh 29.96 in1014.6 mb 0.00 in0.0 mm 0.00 in0.0 mm 0.55 in14.0 mm
09:50 PM 37.9°F3.3°C 34.7°F1.5°C 88% 1.2 mph ESE1.9 kmh ESE 2.9 mph4.7 kmh 29.96 in1014.6 mb 0.00 in0.0 mm 0.00 in0.0 mm 0.55 in14.0 mm
10:00 PM 37.8°F3.2°C 34.5°F1.4°C 88% 0.2 mph W0.3 kmh W 1.1 mph1.8 kmh 29.97 in1014.9 mb 0.00 in0.0 mm 0.00 in0.0 mm 0.55 in14.0 mm
10:10 PM 37.6°F3.1°C 34.3°F1.3°C 88% 1.5 mph SSW2.4 kmh SSW 5.4 mph8.7 kmh 29.98 in1015.2 mb 0.00 in0.0 mm 0.00 in0.0 mm 0.55 in14.0 mm
10:20 PM 37.0°F2.8°C 34.1°F1.2°C 89% 4.1 mph SSE6.6 kmh SSE 5.4 mph8.7 kmh 29.98 in1015.2 mb 0.00 in0.0 mm 0.00 in0.0 mm 0.55 in14.0 mm
10:30 PM 37.2°F2.9°C 34.3°F1.3°C 89% 2.3 mph ESE3.7 kmh ESE 4.9 mph7.9 kmh 29.99 in1015.6 mb 0.00 in0.0 mm 0.00 in0.0 mm 0.55 in14.0 mm
10:40 PM 36.7°F2.6°C 34.0°F1.1°C 90% 0.3 mph SE0.5 kmh SE 3.1 mph5.0 kmh 30.00 in1015.9 mb 0.00 in0.0 mm 0.00 in0.0 mm 0.55 in14.0 mm
10:50 PM 36.9°F2.7°C 34.2°F1.2°C 90% 1.8 mph SE2.9 kmh SE 4.7 mph7.6 kmh 30.00 in1015.9 mb 0.00 in0.0 mm 0.00 in0.0 mm 0.55 in14.0 mm
11:00 PM 36.7°F2.6°C 34.0°F1.1°C 90% 2.0 mph SE3.2 kmh SE 3.8 mph6.1 kmh 30.01 in1016.3 mb 0.00 in0.0 mm 0.00 in0.0 mm 0.55 in14.0 mm
11:10 PM 36.7°F2.6°C 34.0°F1.1°C 90% 2.2 mph SSE3.5 kmh SSE 5.6 mph9.0 kmh 30.02 in1016.6 mb 0.00 in0.0 mm 0.00 in0.0 mm 0.55 in14.0 mm
11:20 PM 36.3°F2.4°C 33.7°F0.9°C 90% 5.8 mph S9.3 kmh S 6.9 mph11.1 kmh 30.02 in1016.6 mb 0.00 in0.0 mm 0.00 in0.0 mm 0.55 in14.0 mm
11:30 PM 36.1°F2.3°C 33.5°F0.8°C 90% 5.2 mph SSE8.4 kmh SSE 6.9 mph11.1 kmh 30.03 in1016.9 mb 0.00 in0.0 mm 0.00 in0.0 mm 0.55 in14.0 mm
11:40 PM 37.2°F2.9°C 33.7°F0.9°C 87% 4.1 mph SE6.6 kmh SE 5.6 mph9.0 kmh 30.03 in1016.9 mb 0.00 in0.0 mm 0.00 in0.0 mm 0.55 in14.0 mm
11:50 PM 37.2°F2.9°C 32.8°F0.4°C 84% 2.9 mph S4.7 kmh S 5.4 mph8.7 kmh 30.04 in1017.3 mb 0.00 in0.0 mm 0.00 in0.0 mm 0.55 in14.0 mm